Terminal Aerodrome Forecast
Issued by NWS New Orleans/Baton Rouge, LA

Home | Current Version | Previous Version | Text Only | Print | Product List | Glossary On
Versions: 1 2 3 4 5 6 7 8 9 10 11 12 13
000
FTUS44 KLIX 011100
TAFBTR
TAF
KBTR 011132Z 0112/0212 11009KT 3SM BR OVC003
     FM011500 11008KT P6SM OVC008
     FM020000 10006KT 1SM BR OVC008
      TEMPO 0208/0212 09005KT 3/4SM BR OVC001=

USA.gov is the U.S. government's official web portal to all federal, state and local government web resources and services.